Bunker, Washington
Current Conditions -  °F | °C
As of 10:35 PM on Thursday 30 Oct 2014 (Local Time) from KCLS Reporting Station
Light Rain Light Rain  
Wind Chill: 12°   Ceiling: 3300
Heat Index: 12°   Visibility: 5mi
Dew Point: 11°   Wind: 0mph
Humidity: 94%   Direction: NA
Pressure: 29.78"   Gusts: NA
Location:  46.6561°N, 122.993°W
Report Text: KCLS 310535Z AUTO 00000KT 5SM -RA OVC033 12/11 A2978 RMK AO2
Loading
Personal Weather Stations






























Interactive Weather Map
Tropical Storm Tracking
New forecast layout! Learn more

10-Day Weather Forecast

Advertisements
Track Severe Weather on mobile